sensor_id;sensor_type;location;lat;lon;timestamp;temperature;humidity
15113;DHT22;7657;50.140;7.076;2023-07-22T00:02:07;16.70;99.90
15113;DHT22;7657;50.140;7.076;2023-07-22T00:04:34;16.70;99.90
15113;DHT22;7657;50.140;7.076;2023-07-22T00:07:00;16.60;99.90
15113;DHT22;7657;50.140;7.076;2023-07-22T00:09:27;16.50;99.90
15113;DHT22;7657;50.140;7.076;2023-07-22T00:11:54;16.50;99.90
15113;DHT22;7657;50.140;7.076;2023-07-22T00:14:22;16.40;99.90
15113;DHT22;7657;50.140;7.076;2023-07-22T00:16:49;16.30;99.90
15113;DHT22;7657;50.140;7.076;2023-07-22T00:19:16;16.20;99.90
15113;DHT22;7657;50.140;7.076;2023-07-22T00:21:43;16.20;99.90
15113;DHT22;7657;50.140;7.076;2023-07-22T00:24:10;16.20;99.90
15113;DHT22;7657;50.140;7.076;2023-07-22T00:26:37;16.30;99.90
15113;DHT22;7657;50.140;7.076;2023-07-22T00:29:04;16.30;99.90
15113;DHT22;7657;50.140;7.076;2023-07-22T00:31:32;16.10;99.90
15113;DHT22;7657;50.140;7.076;2023-07-22T00:34:00;16.10;99.90
15113;DHT22;7657;50.140;7.076;2023-07-22T00:36:27;16.10;99.90
15113;DHT22;7657;50.140;7.076;2023-07-22T00:38:54;16.00;99.90
15113;DHT22;7657;50.140;7.076;2023-07-22T00:41:21;16.00;99.90
15113;DHT22;7657;50.140;7.076;2023-07-22T00:43:48;16.10;99.90
15113;DHT22;7657;50.140;7.076;2023-07-22T00:46:15;16.10;99.90
15113;DHT22;7657;50.140;7.076;2023-07-22T00:48:43;16.20;99.90
15113;DHT22;7657;50.140;7.076;2023-07-22T00:51:10;16.20;99.90
15113;DHT22;7657;50.140;7.076;2023-07-22T00:53:37;16.20;99.90
15113;DHT22;7657;50.140;7.076;2023-07-22T00:56:04;16.20;99.90
15113;DHT22;7657;50.140;7.076;2023-07-22T00:58:31;16.10;99.90
15113;DHT22;7657;50.140;7.076;2023-07-22T01:00:58;16.10;99.90
15113;DHT22;7657;50.140;7.076;2023-07-22T01:03:25;16.10;99.90
15113;DHT22;7657;50.140;7.076;2023-07-22T01:05:55;16.00;99.90
15113;DHT22;7657;50.140;7.076;2023-07-22T01:08:22;16.00;99.90
15113;DHT22;7657;50.140;7.076;2023-07-22T01:10:49;16.00;99.90
15113;DHT22;7657;50.140;7.076;2023-07-22T01:13:16;16.10;99.90
15113;DHT22;7657;50.140;7.076;2023-07-22T01:15:43;16.10;99.90
15113;DHT22;7657;50.140;7.076;2023-07-22T01:18:10;16.10;99.90
15113;DHT22;7657;50.140;7.076;2023-07-22T01:20:38;16.10;99.90
15113;DHT22;7657;50.140;7.076;2023-07-22T01:23:07;16.00;99.90
15113;DHT22;7657;50.140;7.076;2023-07-22T01:25:34;16.00;99.90
15113;DHT22;7657;50.140;7.076;2023-07-22T01:28:01;15.80;99.90
15113;DHT22;7657;50.140;7.076;2023-07-22T01:30:27;15.80;99.90
15113;DHT22;7657;50.140;7.076;2023-07-22T01:32:54;15.90;99.90
15113;DHT22;7657;50.140;7.076;2023-07-22T01:35:21;15.90;99.90
15113;DHT22;7657;50.140;7.076;2023-07-22T01:37:48;15.90;99.90
15113;DHT22;7657;50.140;7.076;2023-07-22T01:40:17;15.90;99.90
15113;DHT22;7657;50.140;7.076;2023-07-22T01:42:44;15.90;99.90
15113;DHT22;7657;50.140;7.076;2023-07-22T01:45:11;15.80;99.90
15113;DHT22;7657;50.140;7.076;2023-07-22T01:47:38;15.80;99.90
15113;DHT22;7657;50.140;7.076;2023-07-22T01:50:06;15.70;99.90
15113;DHT22;7657;50.140;7.076;2023-07-22T01:52:33;15.80;99.90
15113;DHT22;7657;50.140;7.076;2023-07-22T01:55:01;15.80;99.90
15113;DHT22;7657;50.140;7.076;2023-07-22T01:57:32;15.80;99.90
15113;DHT22;7657;50.140;7.076;2023-07-22T02:00:00;15.80;99.90
15113;DHT22;7657;50.140;7.076;2023-07-22T02:02:26;15.80;99.90
15113;DHT22;7657;50.140;7.076;2023-07-22T02:04:53;15.80;99.90
15113;DHT22;7657;50.140;7.076;2023-07-22T02:07:20;15.80;99.90
15113;DHT22;7657;50.140;7.076;2023-07-22T02:09:47;15.80;99.90
15113;DHT22;7657;50.140;7.076;2023-07-22T02:12:17;15.70;99.90
15113;DHT22;7657;50.140;7.076;2023-07-22T02:14:45;15.70;99.90
15113;DHT22;7657;50.140;7.076;2023-07-22T02:17:12;15.70;99.90
15113;DHT22;7657;50.140;7.076;2023-07-22T02:19:39;15.70;99.90
15113;DHT22;7657;50.140;7.076;2023-07-22T02:22:06;15.60;99.90
15113;DHT22;7657;50.140;7.076;2023-07-22T02:24:33;15.60;99.90
15113;DHT22;7657;50.140;7.076;2023-07-22T02:27:00;15.60;99.90
15113;DHT22;7657;50.140;7.076;2023-07-22T02:29:27;15.50;99.90
15113;DHT22;7657;50.140;7.076;2023-07-22T02:31:55;15.50;99.90
15113;DHT22;7657;50.140;7.076;2023-07-22T02:34:22;15.50;99.90
15113;DHT22;7657;50.140;7.076;2023-07-22T02:36:49;15.40;99.90
15113;DHT22;7657;50.140;7.076;2023-07-22T02:39:15;15.30;99.90
15113;DHT22;7657;50.140;7.076;2023-07-22T02:41:42;15.30;99.90
15113;DHT22;7657;50.140;7.076;2023-07-22T02:44:09;15.30;99.90
15113;DHT22;7657;50.140;7.076;2023-07-22T02:46:36;15.20;99.90
15113;DHT22;7657;50.140;7.076;2023-07-22T02:49:04;15.30;99.90
15113;DHT22;7657;50.140;7.076;2023-07-22T02:51:31;15.30;99.90
15113;DHT22;7657;50.140;7.076;2023-07-22T02:53:58;15.30;99.90
15113;DHT22;7657;50.140;7.076;2023-07-22T02:56:25;15.30;99.90
15113;DHT22;7657;50.140;7.076;2023-07-22T02:58:52;15.30;99.90
15113;DHT22;7657;50.140;7.076;2023-07-22T03:01:19;15.20;99.90
15113;DHT22;7657;50.140;7.076;2023-07-22T03:03:46;15.10;99.90
15113;DHT22;7657;50.140;7.076;2023-07-22T03:06:15;15.00;99.90
15113;DHT22;7657;50.140;7.076;2023-07-22T03:08:42;15.00;99.90
15113;DHT22;7657;50.140;7.076;2023-07-22T03:11:09;15.00;99.90
15113;DHT22;7657;50.140;7.076;2023-07-22T03:13:35;15.10;99.90
15113;DHT22;7657;50.140;7.076;2023-07-22T03:16:03;15.10;99.90
15113;DHT22;7657;50.140;7.076;2023-07-22T03:18:30;15.10;99.90
15113;DHT22;7657;50.140;7.076;2023-07-22T03:20:57;15.10;99.90
15113;DHT22;7657;50.140;7.076;2023-07-22T03:23:25;15.10;99.90
15113;DHT22;7657;50.140;7.076;2023-07-22T03:25:52;15.00;99.90
15113;DHT22;7657;50.140;7.076;2023-07-22T03:28:19;14.90;99.90
15113;DHT22;7657;50.140;7.076;2023-07-22T03:30:46;14.90;99.90
15113;DHT22;7657;50.140;7.076;2023-07-22T03:33:13;14.90;99.90
15113;DHT22;7657;50.140;7.076;2023-07-22T03:35:40;14.90;99.90
15113;DHT22;7657;50.140;7.076;2023-07-22T03:38:07;14.80;99.90
15113;DHT22;7657;50.140;7.076;2023-07-22T03:40:35;14.70;99.90
15113;DHT22;7657;50.140;7.076;2023-07-22T03:43:03;14.70;99.90
15113;DHT22;7657;50.140;7.076;2023-07-22T03:45:31;14.80;99.90
15113;DHT22;7657;50.140;7.076;2023-07-22T03:47:59;14.80;99.90
15113;DHT22;7657;50.140;7.076;2023-07-22T03:50:27;14.70;99.90
15113;DHT22;7657;50.140;7.076;2023-07-22T03:52:54;14.80;99.90
15113;DHT22;7657;50.140;7.076;2023-07-22T03:55:21;14.80;99.90
15113;DHT22;7657;50.140;7.076;2023-07-22T03:57:49;14.80;99.90
15113;DHT22;7657;50.140;7.076;2023-07-22T04:00:16;14.80;99.90
15113;DHT22;7657;50.140;7.076;2023-07-22T04:02:43;14.80;99.90
15113;DHT22;7657;50.140;7.076;2023-07-22T04:05:10;14.80;99.90
15113;DHT22;7657;50.140;7.076;2023-07-22T04:07:37;14.70;99.90
15113;DHT22;7657;50.140;7.076;2023-07-22T04:10:05;14.70;99.90
15113;DHT22;7657;50.140;7.076;2023-07-22T04:12:32;14.80;99.90
15113;DHT22;7657;50.140;7.076;2023-07-22T04:15:01;14.80;99.90
15113;DHT22;7657;50.140;7.076;2023-07-22T04:17:28;14.70;99.90
15113;DHT22;7657;50.140;7.076;2023-07-22T04:19:55;14.70;99.90
15113;DHT22;7657;50.140;7.076;2023-07-22T04:22:22;14.80;99.90
15113;DHT22;7657;50.140;7.076;2023-07-22T04:24:49;14.70;99.90
15113;DHT22;7657;50.140;7.076;2023-07-22T04:27:16;14.60;99.90
15113;DHT22;7657;50.140;7.076;2023-07-22T04:29:43;14.70;99.90
15113;DHT22;7657;50.140;7.076;2023-07-22T04:32:11;14.60;99.90
15113;DHT22;7657;50.140;7.076;2023-07-22T04:34:38;14.50;99.90
15113;DHT22;7657;50.140;7.076;2023-07-22T04:37:06;14.50;99.90
15113;DHT22;7657;50.140;7.076;2023-07-22T04:39:33;14.60;99.90
15113;DHT22;7657;50.140;7.076;2023-07-22T04:42:00;14.70;99.90
15113;DHT22;7657;50.140;7.076;2023-07-22T04:44:27;14.80;99.90
15113;DHT22;7657;50.140;7.076;2023-07-22T04:46:54;14.80;99.90
15113;DHT22;7657;50.140;7.076;2023-07-22T04:49:22;14.80;99.90
15113;DHT22;7657;50.140;7.076;2023-07-22T04:51:49;14.90;99.90
15113;DHT22;7657;50.140;7.076;2023-07-22T04:54:16;14.90;99.90
15113;DHT22;7657;50.140;7.076;2023-07-22T04:56:43;14.90;99.90
15113;DHT22;7657;50.140;7.076;2023-07-22T04:59:10;14.90;99.90
15113;DHT22;7657;50.140;7.076;2023-07-22T05:01:39;14.90;99.90
15113;DHT22;7657;50.140;7.076;2023-07-22T05:04:05;14.90;99.90
15113;DHT22;7657;50.140;7.076;2023-07-22T05:06:34;15.00;99.90
15113;DHT22;7657;50.140;7.076;2023-07-22T05:09:01;15.00;99.90
15113;DHT22;7657;50.140;7.076;2023-07-22T05:11:29;15.00;99.90
15113;DHT22;7657;50.140;7.076;2023-07-22T05:13:55;15.00;99.90
15113;DHT22;7657;50.140;7.076;2023-07-22T05:16:22;15.00;99.90
15113;DHT22;7657;50.140;7.076;2023-07-22T05:18:49;15.00;99.90
15113;DHT22;7657;50.140;7.076;2023-07-22T05:21:16;15.00;99.90
15113;DHT22;7657;50.140;7.076;2023-07-22T05:23:44;15.00;99.90
15113;DHT22;7657;50.140;7.076;2023-07-22T05:26:11;15.10;99.90
15113;DHT22;7657;50.140;7.076;2023-07-22T05:28:38;15.20;99.90
15113;DHT22;7657;50.140;7.076;2023-07-22T05:31:05;15.20;99.90
15113;DHT22;7657;50.140;7.076;2023-07-22T05:33:32;15.30;99.90
15113;DHT22;7657;50.140;7.076;2023-07-22T05:35:59;15.30;99.90
15113;DHT22;7657;50.140;7.076;2023-07-22T05:38:26;15.30;99.90
15113;DHT22;7657;50.140;7.076;2023-07-22T05:40:54;15.30;99.90
15113;DHT22;7657;50.140;7.076;2023-07-22T05:43:21;15.40;99.90
15113;DHT22;7657;50.140;7.076;2023-07-22T05:45:48;15.40;99.90
15113;DHT22;7657;50.140;7.076;2023-07-22T05:48:15;15.50;99.90
15113;DHT22;7657;50.140;7.076;2023-07-22T05:50:42;15.40;99.90
15113;DHT22;7657;50.140;7.076;2023-07-22T05:53:09;15.40;99.90
15113;DHT22;7657;50.140;7.076;2023-07-22T05:55:36;15.40;99.90
15113;DHT22;7657;50.140;7.076;2023-07-22T05:58:04;15.50;99.90
15113;DHT22;7657;50.140;7.076;2023-07-22T06:00:32;15.50;99.90
15113;DHT22;7657;50.140;7.076;2023-07-22T06:02:59;15.50;99.90
15113;DHT22;7657;50.140;7.076;2023-07-22T06:05:26;15.50;99.90
15113;DHT22;7657;50.140;7.076;2023-07-22T06:07:53;15.60;99.90
15113;DHT22;7657;50.140;7.076;2023-07-22T06:10:22;15.70;99.90
15113;DHT22;7657;50.140;7.076;2023-07-22T06:12:49;15.70;99.90
15113;DHT22;7657;50.140;7.076;2023-07-22T06:15:17;15.70;99.90
15113;DHT22;7657;50.140;7.076;2023-07-22T06:17:44;15.70;99.90
15113;DHT22;7657;50.140;7.076;2023-07-22T06:20:11;15.80;99.90
15113;DHT22;7657;50.140;7.076;2023-07-22T06:22:38;15.80;99.90
15113;DHT22;7657;50.140;7.076;2023-07-22T06:25:06;15.70;99.90
15113;DHT22;7657;50.140;7.076;2023-07-22T06:27:33;15.80;99.90
15113;DHT22;7657;50.140;7.076;2023-07-22T06:30:00;15.80;99.90
15113;DHT22;7657;50.140;7.076;2023-07-22T06:32:28;15.70;99.90
15113;DHT22;7657;50.140;7.076;2023-07-22T06:34:55;15.80;99.90
15113;DHT22;7657;50.140;7.076;2023-07-22T06:37:23;15.80;99.90
15113;DHT22;7657;50.140;7.076;2023-07-22T06:39:50;15.70;99.90
15113;DHT22;7657;50.140;7.076;2023-07-22T06:42:17;15.80;99.90
15113;DHT22;7657;50.140;7.076;2023-07-22T06:44:44;15.90;99.90
15113;DHT22;7657;50.140;7.076;2023-07-22T06:47:10;15.90;99.90
15113;DHT22;7657;50.140;7.076;2023-07-22T06:49:39;15.90;99.90
15113;DHT22;7657;50.140;7.076;2023-07-22T06:52:06;16.00;99.90
15113;DHT22;7657;50.140;7.076;2023-07-22T06:54:35;16.00;99.90
15113;DHT22;7657;50.140;7.076;2023-07-22T06:57:02;16.10;99.90
15113;DHT22;7657;50.140;7.076;2023-07-22T06:59:31;16.20;99.90
15113;DHT22;7657;50.140;7.076;2023-07-22T07:01:58;16.20;99.90
15113;DHT22;7657;50.140;7.076;2023-07-22T07:04:25;16.40;99.90
15113;DHT22;7657;50.140;7.076;2023-07-22T07:06:54;16.40;99.90
15113;DHT22;7657;50.140;7.076;2023-07-22T07:09:21;16.40;99.90
15113;DHT22;7657;50.140;7.076;2023-07-22T07:11:47;16.30;99.90
15113;DHT22;7657;50.140;7.076;2023-07-22T07:14:14;16.50;99.90
15113;DHT22;7657;50.140;7.076;2023-07-22T07:16:41;16.50;99.90
15113;DHT22;7657;50.140;7.076;2023-07-22T07:19:08;16.70;99.90
15113;DHT22;7657;50.140;7.076;2023-07-22T07:21:35;16.60;99.90
15113;DHT22;7657;50.140;7.076;2023-07-22T07:24:04;16.60;99.90
15113;DHT22;7657;50.140;7.076;2023-07-22T07:26:31;16.70;99.90
15113;DHT22;7657;50.140;7.076;2023-07-22T07:28:58;16.70;99.90
15113;DHT22;7657;50.140;7.076;2023-07-22T07:31:25;16.70;99.90
15113;DHT22;7657;50.140;7.076;2023-07-22T07:33:52;16.80;99.90
15113;DHT22;7657;50.140;7.076;2023-07-22T07:36:19;16.80;99.90
15113;DHT22;7657;50.140;7.076;2023-07-22T07:38:46;16.80;99.90
15113;DHT22;7657;50.140;7.076;2023-07-22T07:41:15;16.90;99.90
15113;DHT22;7657;50.140;7.076;2023-07-22T07:43:42;16.90;99.90
15113;DHT22;7657;50.140;7.076;2023-07-22T07:46:20;16.90;99.90
15113;DHT22;7657;50.140;7.076;2023-07-22T07:48:48;17.00;99.90
15113;DHT22;7657;50.140;7.076;2023-07-22T07:51:16;17.00;99.90
15113;DHT22;7657;50.140;7.076;2023-07-22T07:53:44;17.10;99.90
15113;DHT22;7657;50.140;7.076;2023-07-22T07:56:12;17.10;99.90
15113;DHT22;7657;50.140;7.076;2023-07-22T07:58:41;17.10;99.90
15113;DHT22;7657;50.140;7.076;2023-07-22T08:01:08;17.20;99.90
15113;DHT22;7657;50.140;7.076;2023-07-22T08:03:36;17.30;99.90
15113;DHT22;7657;50.140;7.076;2023-07-22T08:06:03;17.30;99.90
15113;DHT22;7657;50.140;7.076;2023-07-22T08:08:32;17.30;99.90
15113;DHT22;7657;50.140;7.076;2023-07-22T08:10:59;17.40;99.90
15113;DHT22;7657;50.140;7.076;2023-07-22T08:13:26;17.50;99.90
15113;DHT22;7657;50.140;7.076;2023-07-22T08:15:56;17.50;99.90
15113;DHT22;7657;50.140;7.076;2023-07-22T08:18:24;17.60;99.90
15113;DHT22;7657;50.140;7.076;2023-07-22T08:20:51;17.60;99.90
15113;DHT22;7657;50.140;7.076;2023-07-22T08:23:19;17.70;99.90
15113;DHT22;7657;50.140;7.076;2023-07-22T08:25:45;17.70;99.90
15113;DHT22;7657;50.140;7.076;2023-07-22T08:28:12;17.80;99.90
15113;DHT22;7657;50.140;7.076;2023-07-22T08:30:39;17.70;99.90
15113;DHT22;7657;50.140;7.076;2023-07-22T08:33:09;17.70;99.90
15113;DHT22;7657;50.140;7.076;2023-07-22T08:35:37;17.80;99.90
15113;DHT22;7657;50.140;7.076;2023-07-22T08:38:04;17.80;99.90
15113;DHT22;7657;50.140;7.076;2023-07-22T08:40:33;18.00;99.90
15113;DHT22;7657;50.140;7.076;2023-07-22T08:43:02;18.00;99.90
15113;DHT22;7657;50.140;7.076;2023-07-22T08:45:30;18.00;99.90
15113;DHT22;7657;50.140;7.076;2023-07-22T08:48:02;18.10;99.90
15113;DHT22;7657;50.140;7.076;2023-07-22T08:50:37;18.20;99.90
15113;DHT22;7657;50.140;7.076;2023-07-22T08:53:06;18.30;99.90
15113;DHT22;7657;50.140;7.076;2023-07-22T08:55:34;18.40;99.90
15113;DHT22;7657;50.140;7.076;2023-07-22T08:58:01;18.50;99.90
15113;DHT22;7657;50.140;7.076;2023-07-22T09:00:29;18.60;99.90
15113;DHT22;7657;50.140;7.076;2023-07-22T09:02:56;18.70;99.90
15113;DHT22;7657;50.140;7.076;2023-07-22T09:05:25;18.80;99.90
15113;DHT22;7657;50.140;7.076;2023-07-22T09:07:54;18.70;99.90
15113;DHT22;7657;50.140;7.076;2023-07-22T09:10:21;18.70;99.90
15113;DHT22;7657;50.140;7.076;2023-07-22T09:12:49;18.70;99.90
15113;DHT22;7657;50.140;7.076;2023-07-22T09:15:17;18.60;99.90
15113;DHT22;7657;50.140;7.076;2023-07-22T09:17:45;18.60;99.90
15113;DHT22;7657;50.140;7.076;2023-07-22T09:20:13;18.70;99.90
15113;DHT22;7657;50.140;7.076;2023-07-22T09:22:43;18.70;99.90
15113;DHT22;7657;50.140;7.076;2023-07-22T09:25:16;18.60;99.90
15113;DHT22;7657;50.140;7.076;2023-07-22T09:27:44;18.60;99.90
15113;DHT22;7657;50.140;7.076;2023-07-22T09:30:24;18.70;99.90
15113;DHT22;7657;50.140;7.076;2023-07-22T09:32:52;18.70;99.90
15113;DHT22;7657;50.140;7.076;2023-07-22T09:35:22;18.50;99.90
15113;DHT22;7657;50.140;7.076;2023-07-22T09:37:49;18.50;99.90
15113;DHT22;7657;50.140;7.076;2023-07-22T09:40:22;18.50;99.90
15113;DHT22;7657;50.140;7.076;2023-07-22T09:42:50;18.60;99.90
15113;DHT22;7657;50.140;7.076;2023-07-22T09:45:18;18.60;99.90
15113;DHT22;7657;50.140;7.076;2023-07-22T09:47:46;18.80;99.90
15113;DHT22;7657;50.140;7.076;2023-07-22T09:50:15;18.80;99.90
15113;DHT22;7657;50.140;7.076;2023-07-22T09:52:46;18.90;99.90
15113;DHT22;7657;50.140;7.076;2023-07-22T09:55:17;19.00;99.90
15113;DHT22;7657;50.140;7.076;2023-07-22T09:57:52;19.00;99.90
15113;DHT22;7657;50.140;7.076;2023-07-22T10:00:19;19.10;99.90
15113;DHT22;7657;50.140;7.076;2023-07-22T10:02:48;19.10;99.90
15113;DHT22;7657;50.140;7.076;2023-07-22T10:05:17;19.40;99.90
15113;DHT22;7657;50.140;7.076;2023-07-22T10:07:46;19.60;99.90
15113;DHT22;7657;50.140;7.076;2023-07-22T10:10:15;19.60;99.90
15113;DHT22;7657;50.140;7.076;2023-07-22T10:12:43;19.50;99.90
15113;DHT22;7657;50.140;7.076;2023-07-22T10:15:13;19.50;99.90
15113;DHT22;7657;50.140;7.076;2023-07-22T10:17:41;19.50;99.90
15113;DHT22;7657;50.140;7.076;2023-07-22T10:20:10;19.40;99.90
15113;DHT22;7657;50.140;7.076;2023-07-22T10:22:41;19.50;99.90
15113;DHT22;7657;50.140;7.076;2023-07-22T10:25:11;19.60;99.90
15113;DHT22;7657;50.140;7.076;2023-07-22T10:27:38;19.80;99.90
15113;DHT22;7657;50.140;7.076;2023-07-22T10:30:07;19.80;99.90
15113;DHT22;7657;50.140;7.076;2023-07-22T10:32:38;19.90;99.90
15113;DHT22;7657;50.140;7.076;2023-07-22T10:35:08;19.80;99.90
15113;DHT22;7657;50.140;7.076;2023-07-22T10:37:37;19.90;99.90
15113;DHT22;7657;50.140;7.076;2023-07-22T10:40:18;19.90;99.90
15113;DHT22;7657;50.140;7.076;2023-07-22T10:42:58;20.00;99.90
15113;DHT22;7657;50.140;7.076;2023-07-22T10:45:26;20.00;99.90
15113;DHT22;7657;50.140;7.076;2023-07-22T10:48:03;20.20;99.90
15113;DHT22;7657;50.140;7.076;2023-07-22T10:50:42;20.20;99.90
15113;DHT22;7657;50.140;7.076;2023-07-22T10:53:13;20.30;99.90
15113;DHT22;7657;50.140;7.076;2023-07-22T10:56:04;20.30;99.90
15113;DHT22;7657;50.140;7.076;2023-07-22T10:58:32;20.40;99.90
15113;DHT22;7657;50.140;7.076;2023-07-22T11:01:24;20.30;99.90
15113;DHT22;7657;50.140;7.076;2023-07-22T11:04:09;20.30;99.90
15113;DHT22;7657;50.140;7.076;2023-07-22T11:06:37;20.40;99.90
15113;DHT22;7657;50.140;7.076;2023-07-22T11:09:05;20.40;99.90
15113;DHT22;7657;50.140;7.076;2023-07-22T11:11:36;20.40;99.90
15113;DHT22;7657;50.140;7.076;2023-07-22T11:14:14;20.40;99.90
15113;DHT22;7657;50.140;7.076;2023-07-22T11:16:42;20.40;99.90
15113;DHT22;7657;50.140;7.076;2023-07-22T11:19:10;20.30;99.90
15113;DHT22;7657;50.140;7.076;2023-07-22T11:21:37;20.30;99.90
15113;DHT22;7657;50.140;7.076;2023-07-22T11:24:04;20.40;99.90
15113;DHT22;7657;50.140;7.076;2023-07-22T11:26:31;20.40;99.90
15113;DHT22;7657;50.140;7.076;2023-07-22T11:28:59;20.40;99.90
15113;DHT22;7657;50.140;7.076;2023-07-22T11:31:31;20.50;99.90
15113;DHT22;7657;50.140;7.076;2023-07-22T11:33:58;20.50;99.90
15113;DHT22;7657;50.140;7.076;2023-07-22T11:36:26;20.60;99.90
15113;DHT22;7657;50.140;7.076;2023-07-22T11:38:53;20.70;99.90
15113;DHT22;7657;50.140;7.076;2023-07-22T11:41:21;20.70;99.90
15113;DHT22;7657;50.140;7.076;2023-07-22T11:43:48;20.70;99.90
15113;DHT22;7657;50.140;7.076;2023-07-22T11:46:15;20.70;99.90
15113;DHT22;7657;50.140;7.076;2023-07-22T11:48:49;20.70;99.90
15113;DHT22;7657;50.140;7.076;2023-07-22T11:51:18;20.80;99.90
15113;DHT22;7657;50.140;7.076;2023-07-22T11:53:48;20.80;99.90
15113;DHT22;7657;50.140;7.076;2023-07-22T11:56:20;21.00;99.90
15113;DHT22;7657;50.140;7.076;2023-07-22T11:58:51;20.90;99.90
15113;DHT22;7657;50.140;7.076;2023-07-22T12:01:18;20.70;99.90
15113;DHT22;7657;50.140;7.076;2023-07-22T12:03:46;20.60;99.90
15113;DHT22;7657;50.140;7.076;2023-07-22T12:06:13;20.60;99.90
15113;DHT22;7657;50.140;7.076;2023-07-22T12:08:45;20.70;99.90
15113;DHT22;7657;50.140;7.076;2023-07-22T12:11:20;20.70;99.90
15113;DHT22;7657;50.140;7.076;2023-07-22T12:13:56;20.60;99.90
15113;DHT22;7657;50.140;7.076;2023-07-22T12:16:30;20.80;99.90
15113;DHT22;7657;50.140;7.076;2023-07-22T12:18:57;20.70;99.90
15113;DHT22;7657;50.140;7.076;2023-07-22T12:21:24;20.70;99.90
15113;DHT22;7657;50.140;7.076;2023-07-22T12:23:53;20.80;99.90
15113;DHT22;7657;50.140;7.076;2023-07-22T12:26:21;20.80;99.90
15113;DHT22;7657;50.140;7.076;2023-07-22T12:28:48;20.70;99.90
15113;DHT22;7657;50.140;7.076;2023-07-22T12:31:15;20.70;99.90
15113;DHT22;7657;50.140;7.076;2023-07-22T12:33:42;20.70;99.90
15113;DHT22;7657;50.140;7.076;2023-07-22T12:36:10;20.70;99.90
15113;DHT22;7657;50.140;7.076;2023-07-22T12:38:37;20.80;99.90
15113;DHT22;7657;50.140;7.076;2023-07-22T12:41:03;20.90;99.90
15113;DHT22;7657;50.140;7.076;2023-07-22T12:43:32;21.10;99.90
15113;DHT22;7657;50.140;7.076;2023-07-22T12:45:59;21.30;99.90
15113;DHT22;7657;50.140;7.076;2023-07-22T12:48:25;21.50;99.90
15113;DHT22;7657;50.140;7.076;2023-07-22T12:50:52;21.60;99.90
15113;DHT22;7657;50.140;7.076;2023-07-22T12:53:19;21.90;99.90
15113;DHT22;7657;50.140;7.076;2023-07-22T12:55:46;22.10;99.90
15113;DHT22;7657;50.140;7.076;2023-07-22T12:58:14;22.30;99.90
15113;DHT22;7657;50.140;7.076;2023-07-22T13:00:42;22.60;99.90
15113;DHT22;7657;50.140;7.076;2023-07-22T13:03:09;22.70;99.90
15113;DHT22;7657;50.140;7.076;2023-07-22T13:05:36;22.60;99.90
15113;DHT22;7657;50.140;7.076;2023-07-22T13:08:03;22.90;99.90
15113;DHT22;7657;50.140;7.076;2023-07-22T13:10:37;23.00;99.30
15113;DHT22;7657;50.140;7.076;2023-07-22T13:13:05;23.40;99.30
15113;DHT22;7657;50.140;7.076;2023-07-22T13:15:32;23.80;97.80
15113;DHT22;7657;50.140;7.076;2023-07-22T13:18:00;23.80;97.80
15113;DHT22;7657;50.140;7.076;2023-07-22T13:20:28;24.10;96.80
15113;DHT22;7657;50.140;7.076;2023-07-22T13:22:55;24.20;96.40
15113;DHT22;7657;50.140;7.076;2023-07-22T13:25:22;24.40;95.40
15113;DHT22;7657;50.140;7.076;2023-07-22T13:27:49;24.00;94.90
15113;DHT22;7657;50.140;7.076;2023-07-22T13:30:16;24.00;94.90
15113;DHT22;7657;50.140;7.076;2023-07-22T13:32:42;24.00;94.30
15113;DHT22;7657;50.140;7.076;2023-07-22T13:35:11;23.70;94.20
15113;DHT22;7657;50.140;7.076;2023-07-22T13:37:38;23.50;95.00
15113;DHT22;7657;50.140;7.076;2023-07-22T13:40:06;23.60;95.20
15113;DHT22;7657;50.140;7.076;2023-07-22T13:42:36;23.70;95.60
15113;DHT22;7657;50.140;7.076;2023-07-22T13:45:04;23.60;95.20
15113;DHT22;7657;50.140;7.076;2023-07-22T13:47:31;24.10;95.20
15113;DHT22;7657;50.140;7.076;2023-07-22T13:49:58;24.50;94.90
15113;DHT22;7657;50.140;7.076;2023-07-22T13:52:26;24.90;94.40
15113;DHT22;7657;50.140;7.076;2023-07-22T13:54:53;24.60;93.00
15113;DHT22;7657;50.140;7.076;2023-07-22T13:57:20;24.50;92.90
15113;DHT22;7657;50.140;7.076;2023-07-22T13:59:47;24.40;92.40
15113;DHT22;7657;50.140;7.076;2023-07-22T14:02:14;24.70;92.00
15113;DHT22;7657;50.140;7.076;2023-07-22T14:04:41;24.50;92.20
15113;DHT22;7657;50.140;7.076;2023-07-22T14:07:08;24.60;92.20
15113;DHT22;7657;50.140;7.076;2023-07-22T14:09:36;24.60;91.50
15113;DHT22;7657;50.140;7.076;2023-07-22T14:12:03;24.60;92.00
15113;DHT22;7657;50.140;7.076;2023-07-22T14:14:30;25.20;91.70
15113;DHT22;7657;50.140;7.076;2023-07-22T14:16:57;25.40;91.00
15113;DHT22;7657;50.140;7.076;2023-07-22T14:19:24;25.10;90.80
15113;DHT22;7657;50.140;7.076;2023-07-22T14:21:51;25.10;90.90
15113;DHT22;7657;50.140;7.076;2023-07-22T14:24:18;25.40;89.90
15113;DHT22;7657;50.140;7.076;2023-07-22T14:26:46;25.80;86.40
15113;DHT22;7657;50.140;7.076;2023-07-22T14:29:14;25.60;87.10
15113;DHT22;7657;50.140;7.076;2023-07-22T14:31:42;25.70;85.00
15113;DHT22;7657;50.140;7.076;2023-07-22T14:34:09;25.90;86.30
15113;DHT22;7657;50.140;7.076;2023-07-22T14:36:36;26.40;83.60
15113;DHT22;7657;50.140;7.076;2023-07-22T14:39:03;26.30;83.00
15113;DHT22;7657;50.140;7.076;2023-07-22T14:41:30;26.40;81.20
15113;DHT22;7657;50.140;7.076;2023-07-22T14:43:58;26.10;80.70
15113;DHT22;7657;50.140;7.076;2023-07-22T14:46:25;26.00;81.00
15113;DHT22;7657;50.140;7.076;2023-07-22T14:48:52;25.70;80.40
15113;DHT22;7657;50.140;7.076;2023-07-22T14:51:19;26.20;80.10
15113;DHT22;7657;50.140;7.076;2023-07-22T14:53:46;26.80;78.40
15113;DHT22;7657;50.140;7.076;2023-07-22T14:56:13;27.00;78.50
15113;DHT22;7657;50.140;7.076;2023-07-22T14:58:40;26.80;77.70
15113;DHT22;7657;50.140;7.076;2023-07-22T15:01:08;27.10;77.00
15113;DHT22;7657;50.140;7.076;2023-07-22T15:03:36;27.20;76.30
15113;DHT22;7657;50.140;7.076;2023-07-22T15:06:03;27.60;76.70
15113;DHT22;7657;50.140;7.076;2023-07-22T15:08:30;27.80;74.00
15113;DHT22;7657;50.140;7.076;2023-07-22T15:10:57;28.10;73.40
15113;DHT22;7657;50.140;7.076;2023-07-22T15:13:24;27.20;72.30
15113;DHT22;7657;50.140;7.076;2023-07-22T15:15:52;26.80;72.70
15113;DHT22;7657;50.140;7.076;2023-07-22T15:18:21;26.50;73.70
15113;DHT22;7657;50.140;7.076;2023-07-22T15:20:48;26.70;74.30
15113;DHT22;7657;50.140;7.076;2023-07-22T15:23:15;27.00;72.40
15113;DHT22;7657;50.140;7.076;2023-07-22T15:25:42;26.20;72.00
15113;DHT22;7657;50.140;7.076;2023-07-22T15:28:09;25.80;73.30
15113;DHT22;7657;50.140;7.076;2023-07-22T15:30:36;25.50;74.70
15113;DHT22;7657;50.140;7.076;2023-07-22T15:33:03;25.40;74.90
15113;DHT22;7657;50.140;7.076;2023-07-22T15:35:31;25.10;76.30
15113;DHT22;7657;50.140;7.076;2023-07-22T15:37:58;25.30;76.30
15113;DHT22;7657;50.140;7.076;2023-07-22T15:40:25;25.20;76.60
15113;DHT22;7657;50.140;7.076;2023-07-22T15:42:52;25.80;76.50
15113;DHT22;7657;50.140;7.076;2023-07-22T15:45:19;25.90;75.10
15113;DHT22;7657;50.140;7.076;2023-07-22T15:47:46;26.00;74.10
15113;DHT22;7657;50.140;7.076;2023-07-22T15:50:12;26.00;73.40